sensor_id;sensor_type;location;lat;lon;timestamp;P1;durP1;ratioP1;P2;durP2;ratioP2
68985;SDS011;56035;37.534;-122.308;2022-09-09T00:02:24;12.18;;;4.35;;
68985;SDS011;56035;37.534;-122.308;2022-09-09T00:05:00;11.60;;;4.05;;
68985;SDS011;56035;37.534;-122.308;2022-09-09T00:07:39;12.18;;;4.53;;
68985;SDS011;56035;37.534;-122.308;2022-09-09T00:16:19;13.27;;;4.80;;
68985;SDS011;56035;37.534;-122.308;2022-09-09T00:19:12;13.20;;;5.22;;
68985;SDS011;56035;37.534;-122.308;2022-09-09T00:21:37;15.02;;;4.78;;
68985;SDS011;56035;37.534;-122.308;2022-09-09T00:27:01;11.07;;;4.50;;
68985;SDS011;56035;37.534;-122.308;2022-09-09T00:32:15;8.25;;;3.42;;
68985;SDS011;56035;37.534;-122.308;2022-09-09T00:34:57;5.32;;;2.53;;
68985;SDS011;56035;37.534;-122.308;2022-09-09T00:37:28;4.70;;;1.77;;
68985;SDS011;56035;37.534;-122.308;2022-09-09T00:40:01;4.13;;;1.88;;
68985;SDS011;56035;37.534;-122.308;2022-09-09T00:42:37;3.33;;;1.77;;
68985;SDS011;56035;37.534;-122.308;2022-09-09T00:48:09;3.75;;;1.60;;
68985;SDS011;56035;37.534;-122.308;2022-09-09T00:51:00;5.07;;;1.98;;
68985;SDS011;56035;37.534;-122.308;2022-09-09T00:56:41;7.32;;;2.10;;
68985;SDS011;56035;37.534;-122.308;2022-09-09T01:04:56;5.95;;;1.80;;
68985;SDS011;56035;37.534;-122.308;2022-09-09T01:07:33;2.55;;;1.70;;
68985;SDS011;56035;37.534;-122.308;2022-09-09T01:10:00;3.80;;;1.85;;
68985;SDS011;56035;37.534;-122.308;2022-09-09T01:12:41;4.10;;;1.80;;
68985;SDS011;56035;37.534;-122.308;2022-09-09T01:15:10;2.65;;;1.60;;
68985;SDS011;56035;37.534;-122.308;2022-09-09T01:18:21;4.43;;;1.80;;
68985;SDS011;56035;37.534;-122.308;2022-09-09T01:27:02;17.55;;;7.18;;
68985;SDS011;56035;37.534;-122.308;2022-09-09T01:29:26;20.65;;;7.28;;
68985;SDS011;56035;37.534;-122.308;2022-09-09T01:31:56;21.80;;;8.25;;
68985;SDS011;56035;37.534;-122.308;2022-09-09T01:34:25;23.90;;;7.90;;
68985;SDS011;56035;37.534;-122.308;2022-09-09T01:39:33;23.13;;;8.05;;
68985;SDS011;56035;37.534;-122.308;2022-09-09T01:42:01;22.17;;;8.13;;
68985;SDS011;56035;37.534;-122.308;2022-09-09T01:44:27;22.83;;;7.35;;
68985;SDS011;56035;37.534;-122.308;2022-09-09T01:46:55;21.63;;;8.18;;
68985;SDS011;56035;37.534;-122.308;2022-09-09T01:49:21;24.33;;;8.68;;
68985;SDS011;56035;37.534;-122.308;2022-09-09T01:51:52;23.42;;;8.88;;
68985;SDS011;56035;37.534;-122.308;2022-09-09T01:54:20;20.45;;;7.05;;
68985;SDS011;56035;37.534;-122.308;2022-09-09T01:59:58;23.02;;;8.38;;
68985;SDS011;56035;37.534;-122.308;2022-09-09T02:02:43;28.13;;;8.98;;
68985;SDS011;56035;37.534;-122.308;2022-09-09T02:07:51;29.90;;;9.98;;
68985;SDS011;56035;37.534;-122.308;2022-09-09T02:13:17;28.30;;;9.57;;
68985;SDS011;56035;37.534;-122.308;2022-09-09T02:15:50;28.30;;;9.27;;
68985;SDS011;56035;37.534;-122.308;2022-09-09T02:18:20;30.48;;;9.90;;
68985;SDS011;56035;37.534;-122.308;2022-09-09T02:21:07;30.23;;;8.65;;
68985;SDS011;56035;37.534;-122.308;2022-09-09T02:23:38;27.27;;;9.63;;
68985;SDS011;56035;37.534;-122.308;2022-09-09T02:26:07;25.85;;;8.45;;
68985;SDS011;56035;37.534;-122.308;2022-09-09T02:28:36;29.05;;;9.57;;
68985;SDS011;56035;37.534;-122.308;2022-09-09T02:31:05;28.45;;;9.23;;
68985;SDS011;56035;37.534;-122.308;2022-09-09T02:33:33;31.17;;;9.45;;
68985;SDS011;56035;37.534;-122.308;2022-09-09T02:36:05;30.00;;;9.60;;
68985;SDS011;56035;37.534;-122.308;2022-09-09T02:38:36;27.00;;;8.52;;
68985;SDS011;56035;37.534;-122.308;2022-09-09T02:41:06;35.58;;;9.93;;
68985;SDS011;56035;37.534;-122.308;2022-09-09T02:43:33;32.38;;;9.23;;
68985;SDS011;56035;37.534;-122.308;2022-09-09T02:48:30;26.63;;;8.73;;
68985;SDS011;56035;37.534;-122.308;2022-09-09T02:54:21;27.92;;;8.40;;
68985;SDS011;56035;37.534;-122.308;2022-09-09T02:57:00;29.20;;;8.38;;
68985;SDS011;56035;37.534;-122.308;2022-09-09T02:59:37;33.50;;;9.15;;
68985;SDS011;56035;37.534;-122.308;2022-09-09T03:02:06;32.30;;;9.43;;
68985;SDS011;56035;37.534;-122.308;2022-09-09T03:04:35;32.38;;;9.70;;
68985;SDS011;56035;37.534;-122.308;2022-09-09T03:07:01;29.02;;;8.82;;
68985;SDS011;56035;37.534;-122.308;2022-09-09T03:09:29;28.75;;;8.65;;
68985;SDS011;56035;37.534;-122.308;2022-09-09T03:14:21;30.88;;;8.85;;
68985;SDS011;56035;37.534;-122.308;2022-09-09T03:16:50;33.15;;;9.88;;
68985;SDS011;56035;37.534;-122.308;2022-09-09T03:19:17;26.85;;;8.60;;
68985;SDS011;56035;37.534;-122.308;2022-09-09T03:21:44;27.52;;;9.82;;
68985;SDS011;56035;37.534;-122.308;2022-09-09T03:24:11;34.13;;;10.00;;
68985;SDS011;56035;37.534;-122.308;2022-09-09T03:26:37;27.42;;;9.07;;
68985;SDS011;56035;37.534;-122.308;2022-09-09T03:29:05;34.15;;;9.77;;
68985;SDS011;56035;37.534;-122.308;2022-09-09T03:31:32;28.85;;;9.07;;
68985;SDS011;56035;37.534;-122.308;2022-09-09T03:33:59;35.83;;;9.77;;
68985;SDS011;56035;37.534;-122.308;2022-09-09T03:36:25;35.20;;;9.73;;
68985;SDS011;56035;37.534;-122.308;2022-09-09T03:38:52;31.92;;;10.02;;
68985;SDS011;56035;37.534;-122.308;2022-09-09T03:41:19;28.02;;;8.43;;
68985;SDS011;56035;37.534;-122.308;2022-09-09T03:43:51;34.05;;;9.90;;
68985;SDS011;56035;37.534;-122.308;2022-09-09T03:46:21;28.90;;;9.25;;
68985;SDS011;56035;37.534;-122.308;2022-09-09T03:48:49;30.13;;;8.93;;
68985;SDS011;56035;37.534;-122.308;2022-09-09T03:51:17;31.15;;;10.23;;
68985;SDS011;56035;37.534;-122.308;2022-09-09T03:53:44;31.20;;;9.13;;
68985;SDS011;56035;37.534;-122.308;2022-09-09T03:56:10;35.53;;;9.93;;
68985;SDS011;56035;37.534;-122.308;2022-09-09T03:58:37;35.70;;;10.55;;
68985;SDS011;56035;37.534;-122.308;2022-09-09T04:01:04;32.63;;;9.77;;
68985;SDS011;56035;37.534;-122.308;2022-09-09T04:03:33;39.15;;;10.35;;
68985;SDS011;56035;37.534;-122.308;2022-09-09T04:06:02;32.65;;;9.25;;
68985;SDS011;56035;37.534;-122.308;2022-09-09T04:08:30;30.20;;;9.38;;
68985;SDS011;56035;37.534;-122.308;2022-09-09T04:11:01;31.40;;;9.93;;
68985;SDS011;56035;37.534;-122.308;2022-09-09T04:13:30;31.15;;;10.07;;
68985;SDS011;56035;37.534;-122.308;2022-09-09T04:15:57;26.00;;;9.32;;
68985;SDS011;56035;37.534;-122.308;2022-09-09T04:18:24;28.17;;;9.20;;
68985;SDS011;56035;37.534;-122.308;2022-09-09T04:20:52;31.42;;;8.82;;
68985;SDS011;56035;37.534;-122.308;2022-09-09T04:23:19;30.73;;;8.43;;
68985;SDS011;56035;37.534;-122.308;2022-09-09T04:25:49;30.50;;;8.35;;
68985;SDS011;56035;37.534;-122.308;2022-09-09T04:28:19;32.15;;;9.07;;
68985;SDS011;56035;37.534;-122.308;2022-09-09T04:30:47;32.85;;;9.07;;
68985;SDS011;56035;37.534;-122.308;2022-09-09T04:33:13;30.65;;;8.80;;
68985;SDS011;56035;37.534;-122.308;2022-09-09T04:35:46;33.95;;;9.35;;
68985;SDS011;56035;37.534;-122.308;2022-09-09T04:38:15;34.15;;;9.07;;
68985;SDS011;56035;37.534;-122.308;2022-09-09T04:40:51;31.38;;;9.15;;
68985;SDS011;56035;37.534;-122.308;2022-09-09T04:43:19;29.30;;;9.32;;
68985;SDS011;56035;37.534;-122.308;2022-09-09T04:45:49;29.50;;;7.97;;
68985;SDS011;56035;37.534;-122.308;2022-09-09T04:48:19;29.17;;;9.07;;
68985;SDS011;56035;37.534;-122.308;2022-09-09T04:53:25;30.52;;;8.95;;
68985;SDS011;56035;37.534;-122.308;2022-09-09T04:55:53;29.02;;;8.20;;
68985;SDS011;56035;37.534;-122.308;2022-09-09T04:58:36;31.33;;;8.80;;
68985;SDS011;56035;37.534;-122.308;2022-09-09T05:01:04;34.83;;;9.40;;
68985;SDS011;56035;37.534;-122.308;2022-09-09T05:03:35;28.40;;;8.80;;
68985;SDS011;56035;37.534;-122.308;2022-09-09T05:06:05;29.98;;;9.13;;
68985;SDS011;56035;37.534;-122.308;2022-09-09T05:08:39;28.98;;;7.82;;
68985;SDS011;56035;37.534;-122.308;2022-09-09T05:11:16;34.05;;;9.23;;
68985;SDS011;56035;37.534;-122.308;2022-09-09T05:13:48;33.75;;;9.52;;
68985;SDS011;56035;37.534;-122.308;2022-09-09T05:16:15;33.03;;;8.80;;
68985;SDS011;56035;37.534;-122.308;2022-09-09T05:18:42;35.92;;;10.23;;
68985;SDS011;56035;37.534;-122.308;2022-09-09T05:21:09;30.40;;;8.05;;
68985;SDS011;56035;37.534;-122.308;2022-09-09T05:23:37;28.30;;;7.72;;
68985;SDS011;56035;37.534;-122.308;2022-09-09T05:26:04;28.05;;;7.60;;
68985;SDS011;56035;37.534;-122.308;2022-09-09T05:28:35;28.75;;;7.90;;
68985;SDS011;56035;37.534;-122.308;2022-09-09T05:31:03;27.20;;;7.50;;
68985;SDS011;56035;37.534;-122.308;2022-09-09T05:33:31;29.40;;;8.13;;
68985;SDS011;56035;37.534;-122.308;2022-09-09T05:36:05;28.20;;;8.05;;
68985;SDS011;56035;37.534;-122.308;2022-09-09T05:38:33;27.83;;;8.27;;
68985;SDS011;56035;37.534;-122.308;2022-09-09T05:41:01;29.58;;;8.13;;
68985;SDS011;56035;37.534;-122.308;2022-09-09T05:43:28;26.38;;;8.10;;
68985;SDS011;56035;37.534;-122.308;2022-09-09T05:46:16;29.63;;;7.95;;
68985;SDS011;56035;37.534;-122.308;2022-09-09T05:48:43;35.25;;;8.35;;
68985;SDS011;56035;37.534;-122.308;2022-09-09T05:51:16;32.28;;;8.27;;
68985;SDS011;56035;37.534;-122.308;2022-09-09T05:53:46;26.40;;;7.63;;
68985;SDS011;56035;37.534;-122.308;2022-09-09T05:56:13;29.75;;;8.00;;
68985;SDS011;56035;37.534;-122.308;2022-09-09T05:58:41;34.10;;;8.38;;
68985;SDS011;56035;37.534;-122.308;2022-09-09T06:01:19;33.13;;;8.07;;
68985;SDS011;56035;37.534;-122.308;2022-09-09T06:03:48;32.95;;;8.10;;
68985;SDS011;56035;37.534;-122.308;2022-09-09T06:06:19;32.78;;;8.18;;
68985;SDS011;56035;37.534;-122.308;2022-09-09T06:08:48;33.30;;;8.07;;
68985;SDS011;56035;37.534;-122.308;2022-09-09T06:11:17;33.58;;;8.48;;
68985;SDS011;56035;37.534;-122.308;2022-09-09T06:13:47;36.08;;;8.45;;
68985;SDS011;56035;37.534;-122.308;2022-09-09T06:16:16;35.25;;;9.48;;
68985;SDS011;56035;37.534;-122.308;2022-09-09T06:18:44;33.45;;;8.00;;
68985;SDS011;56035;37.534;-122.308;2022-09-09T06:21:18;32.10;;;8.00;;
68985;SDS011;56035;37.534;-122.308;2022-09-09T06:23:45;28.25;;;8.55;;
68985;SDS011;56035;37.534;-122.308;2022-09-09T06:26:20;33.42;;;8.93;;
68985;SDS011;56035;37.534;-122.308;2022-09-09T06:28:52;32.42;;;8.18;;
68985;SDS011;56035;37.534;-122.308;2022-09-09T06:31:20;35.90;;;8.15;;
68985;SDS011;56035;37.534;-122.308;2022-09-09T06:33:52;38.60;;;9.00;;
68985;SDS011;56035;37.534;-122.308;2022-09-09T06:36:21;34.67;;;9.55;;
68985;SDS011;56035;37.534;-122.308;2022-09-09T06:38:49;30.60;;;7.20;;
68985;SDS011;56035;37.534;-122.308;2022-09-09T06:41:16;32.22;;;8.30;;
68985;SDS011;56035;37.534;-122.308;2022-09-09T06:43:44;32.75;;;8.52;;
68985;SDS011;56035;37.534;-122.308;2022-09-09T06:46:14;37.28;;;9.88;;
68985;SDS011;56035;37.534;-122.308;2022-09-09T06:48:41;33.45;;;8.57;;
68985;SDS011;56035;37.534;-122.308;2022-09-09T06:53:37;34.20;;;9.75;;
68985;SDS011;56035;37.534;-122.308;2022-09-09T06:58:37;40.45;;;9.23;;
68985;SDS011;56035;37.534;-122.308;2022-09-09T07:01:17;32.97;;;8.80;;
68985;SDS011;56035;37.534;-122.308;2022-09-09T07:03:45;33.03;;;9.32;;
68985;SDS011;56035;37.534;-122.308;2022-09-09T07:06:23;39.90;;;8.93;;
68985;SDS011;56035;37.534;-122.308;2022-09-09T07:08:51;34.60;;;8.53;;
68985;SDS011;56035;37.534;-122.308;2022-09-09T07:11:19;34.05;;;8.55;;
68985;SDS011;56035;37.534;-122.308;2022-09-09T07:13:47;32.10;;;8.45;;
68985;SDS011;56035;37.534;-122.308;2022-09-09T07:18:41;42.85;;;9.68;;
68985;SDS011;56035;37.534;-122.308;2022-09-09T07:21:08;36.30;;;9.35;;
68985;SDS011;56035;37.534;-122.308;2022-09-09T07:23:37;37.03;;;9.63;;
68985;SDS011;56035;37.534;-122.308;2022-09-09T07:26:14;38.08;;;9.20;;
68985;SDS011;56035;37.534;-122.308;2022-09-09T07:28:42;31.77;;;9.00;;
68985;SDS011;56035;37.534;-122.308;2022-09-09T07:31:20;32.42;;;9.55;;
68985;SDS011;56035;37.534;-122.308;2022-09-09T07:33:49;37.42;;;8.48;;
68985;SDS011;56035;37.534;-122.308;2022-09-09T07:36:16;36.50;;;8.80;;
68985;SDS011;56035;37.534;-122.308;2022-09-09T07:38:48;39.22;;;9.93;;
68985;SDS011;56035;37.534;-122.308;2022-09-09T07:41:23;38.65;;;8.60;;
68985;SDS011;56035;37.534;-122.308;2022-09-09T07:43:53;38.45;;;9.82;;
68985;SDS011;56035;37.534;-122.308;2022-09-09T07:46:21;36.40;;;9.35;;
68985;SDS011;56035;37.534;-122.308;2022-09-09T07:48:49;40.15;;;9.23;;
68985;SDS011;56035;37.534;-122.308;2022-09-09T07:51:22;39.22;;;8.90;;
68985;SDS011;56035;37.534;-122.308;2022-09-09T07:53:54;39.83;;;8.93;;
68985;SDS011;56035;37.534;-122.308;2022-09-09T07:56:27;37.63;;;8.20;;
68985;SDS011;56035;37.534;-122.308;2022-09-09T07:58:55;39.78;;;9.65;;
68985;SDS011;56035;37.534;-122.308;2022-09-09T08:01:26;35.97;;;9.18;;
68985;SDS011;56035;37.534;-122.308;2022-09-09T08:03:57;40.95;;;8.73;;
68985;SDS011;56035;37.534;-122.308;2022-09-09T08:06:29;42.25;;;9.57;;
68985;SDS011;56035;37.534;-122.308;2022-09-09T08:09:02;33.90;;;9.07;;
68985;SDS011;56035;37.534;-122.308;2022-09-09T08:11:29;42.60;;;11.07;;
68985;SDS011;56035;37.534;-122.308;2022-09-09T08:13:56;39.47;;;10.18;;
68985;SDS011;56035;37.534;-122.308;2022-09-09T08:16:23;45.17;;;10.38;;
68985;SDS011;56035;37.534;-122.308;2022-09-09T08:18:52;47.07;;;10.97;;
68985;SDS011;56035;37.534;-122.308;2022-09-09T08:21:26;36.87;;;9.70;;
68985;SDS011;56035;37.534;-122.308;2022-09-09T08:23:54;47.23;;;10.37;;
68985;SDS011;56035;37.534;-122.308;2022-09-09T08:26:22;42.78;;;10.10;;
68985;SDS011;56035;37.534;-122.308;2022-09-09T08:28:51;45.30;;;9.50;;
68985;SDS011;56035;37.534;-122.308;2022-09-09T08:31:19;41.40;;;8.95;;
68985;SDS011;56035;37.534;-122.308;2022-09-09T08:33:47;43.38;;;9.27;;
68985;SDS011;56035;37.534;-122.308;2022-09-09T08:36:18;43.90;;;9.48;;
68985;SDS011;56035;37.534;-122.308;2022-09-09T08:38:49;35.87;;;8.53;;
68985;SDS011;56035;37.534;-122.308;2022-09-09T08:57:56;39.13;;;9.07;;
68985;SDS011;56035;37.534;-122.308;2022-09-09T09:00:24;36.80;;;9.23;;
68985;SDS011;56035;37.534;-122.308;2022-09-09T09:03:08;44.30;;;9.88;;
68985;SDS011;56035;37.534;-122.308;2022-09-09T09:05:42;39.37;;;9.70;;
68985;SDS011;56035;37.534;-122.308;2022-09-09T09:11:10;35.23;;;8.27;;
68985;SDS011;56035;37.534;-122.308;2022-09-09T09:13:41;37.05;;;9.45;;
68985;SDS011;56035;37.534;-122.308;2022-09-09T09:19:01;33.07;;;8.27;;
68985;SDS011;56035;37.534;-122.308;2022-09-09T09:21:36;35.00;;;7.55;;
68985;SDS011;56035;37.534;-122.308;2022-09-09T09:24:28;41.77;;;10.17;;
68985;SDS011;56035;37.534;-122.308;2022-09-09T09:27:13;38.50;;;9.77;;
68985;SDS011;56035;37.534;-122.308;2022-09-09T09:29:42;38.07;;;9.60;;
68985;SDS011;56035;37.534;-122.308;2022-09-09T09:32:14;38.23;;;9.93;;
68985;SDS011;56035;37.534;-122.308;2022-09-09T09:34:48;38.17;;;9.57;;
68985;SDS011;56035;37.534;-122.308;2022-09-09T09:37:30;37.42;;;9.68;;
68985;SDS011;56035;37.534;-122.308;2022-09-09T09:40:11;31.87;;;9.17;;
68985;SDS011;56035;37.534;-122.308;2022-09-09T09:42:54;38.33;;;9.07;;
68985;SDS011;56035;37.534;-122.308;2022-09-09T09:48:04;36.13;;;9.20;;
68985;SDS011;56035;37.534;-122.308;2022-09-09T09:50:31;36.80;;;9.20;;
68985;SDS011;56035;37.534;-122.308;2022-09-09T09:53:03;42.53;;;10.13;;
68985;SDS011;56035;37.534;-122.308;2022-09-09T09:55:32;40.70;;;8.87;;
68985;SDS011;56035;37.534;-122.308;2022-09-09T09:58:01;43.03;;;9.17;;
68985;SDS011;56035;37.534;-122.308;2022-09-09T10:00:32;38.93;;;9.80;;
68985;SDS011;56035;37.534;-122.308;2022-09-09T10:03:02;39.27;;;8.93;;
68985;SDS011;56035;37.534;-122.308;2022-09-09T10:05:46;37.27;;;9.00;;
68985;SDS011;56035;37.534;-122.308;2022-09-09T10:08:15;41.65;;;9.27;;
68985;SDS011;56035;37.534;-122.308;2022-09-09T10:16:24;43.83;;;9.07;;
68985;SDS011;56035;37.534;-122.308;2022-09-09T10:19:30;37.20;;;8.70;;
68985;SDS011;56035;37.534;-122.308;2022-09-09T10:22:02;45.55;;;9.23;;
68985;SDS011;56035;37.534;-122.308;2022-09-09T10:30:09;42.03;;;9.97;;
68985;SDS011;56035;37.534;-122.308;2022-09-09T10:32:46;36.67;;;8.73;;
68985;SDS011;56035;37.534;-122.308;2022-09-09T10:46:22;33.10;;;8.93;;
68985;SDS011;56035;37.534;-122.308;2022-09-09T10:48:59;36.37;;;9.60;;
68985;SDS011;56035;37.534;-122.308;2022-09-09T10:57:39;42.87;;;9.30;;
68985;SDS011;56035;37.534;-122.308;2022-09-09T11:02:32;39.33;;;8.87;;
68985;SDS011;56035;37.534;-122.308;2022-09-09T11:07:48;35.93;;;7.87;;
68985;SDS011;56035;37.534;-122.308;2022-09-09T11:10:43;36.63;;;9.47;;
68985;SDS011;56035;37.534;-122.308;2022-09-09T11:18:46;36.80;;;9.70;;
68985;SDS011;56035;37.534;-122.308;2022-09-09T11:21:21;31.63;;;7.82;;
68985;SDS011;56035;37.534;-122.308;2022-09-09T11:23:53;32.90;;;8.80;;
68985;SDS011;56035;37.534;-122.308;2022-09-09T11:26:58;40.77;;;9.13;;
68985;SDS011;56035;37.534;-122.308;2022-09-09T11:32:42;40.33;;;8.43;;
68985;SDS011;56035;37.534;-122.308;2022-09-09T11:41:10;38.03;;;8.70;;
68985;SDS011;56035;37.534;-122.308;2022-09-09T11:46:12;35.87;;;9.00;;
68985;SDS011;56035;37.534;-122.308;2022-09-09T11:48:43;39.57;;;9.00;;
68985;SDS011;56035;37.534;-122.308;2022-09-09T11:53:50;41.97;;;9.07;;
68985;SDS011;56035;37.534;-122.308;2022-09-09T11:59:01;45.10;;;9.77;;
68985;SDS011;56035;37.534;-122.308;2022-09-09T12:01:45;41.35;;;8.77;;
68985;SDS011;56035;37.534;-122.308;2022-09-09T12:04:16;40.83;;;9.10;;
68985;SDS011;56035;37.534;-122.308;2022-09-09T12:06:49;45.90;;;10.53;;
68985;SDS011;56035;37.534;-122.308;2022-09-09T12:09:43;45.77;;;9.60;;
68985;SDS011;56035;37.534;-122.308;2022-09-09T12:14:43;39.60;;;9.27;;
68985;SDS011;56035;37.534;-122.308;2022-09-09T12:17:24;38.93;;;9.73;;
68985;SDS011;56035;37.534;-122.308;2022-09-09T12:28:40;48.17;;;10.43;;
68985;SDS011;56035;37.534;-122.308;2022-09-09T12:31:27;42.23;;;9.13;;
68985;SDS011;56035;37.534;-122.308;2022-09-09T12:34:15;42.10;;;9.37;;
68985;SDS011;56035;37.534;-122.308;2022-09-09T12:36:55;37.20;;;8.40;;
68985;SDS011;56035;37.534;-122.308;2022-09-09T12:39:39;41.97;;;10.17;;
68985;SDS011;56035;37.534;-122.308;2022-09-09T12:42:19;48.00;;;11.47;;
68985;SDS011;56035;37.534;-122.308;2022-09-09T12:44:56;47.43;;;9.33;;
68985;SDS011;56035;37.534;-122.308;2022-09-09T12:47:47;39.40;;;9.87;;
68985;SDS011;56035;37.534;-122.308;2022-09-09T12:50:26;44.10;;;9.00;;
68985;SDS011;56035;37.534;-122.308;2022-09-09T12:53:02;34.73;;;9.37;;
68985;SDS011;56035;37.534;-122.308;2022-09-09T12:55:35;43.03;;;9.57;;
68985;SDS011;56035;37.534;-122.308;2022-09-09T12:58:04;40.50;;;10.53;;
68985;SDS011;56035;37.534;-122.308;2022-09-09T13:00:32;47.43;;;8.83;;
68985;SDS011;56035;37.534;-122.308;2022-09-09T13:03:01;50.23;;;9.43;;
68985;SDS011;56035;37.534;-122.308;2022-09-09T13:05:40;42.40;;;9.30;;
68985;SDS011;56035;37.534;-122.308;2022-09-09T13:08:08;41.35;;;9.85;;
68985;SDS011;56035;37.534;-122.308;2022-09-09T13:10:37;41.97;;;9.17;;
68985;SDS011;56035;37.534;-122.308;2022-09-09T13:13:16;45.50;;;9.93;;
68985;SDS011;56035;37.534;-122.308;2022-09-09T13:15:49;42.13;;;9.53;;
68985;SDS011;56035;37.534;-122.308;2022-09-09T13:18:18;46.47;;;9.23;;
68985;SDS011;56035;37.534;-122.308;2022-09-09T13:20:49;41.40;;;9.60;;
68985;SDS011;56035;37.534;-122.308;2022-09-09T13:23:17;44.67;;;9.23;;
68985;SDS011;56035;37.534;-122.308;2022-09-09T13:26:02;36.67;;;9.20;;
68985;SDS011;56035;37.534;-122.308;2022-09-09T13:28:31;40.10;;;8.93;;
68985;SDS011;56035;37.534;-122.308;2022-09-09T13:33:38;36.70;;;8.83;;
68985;SDS011;56035;37.534;-122.308;2022-09-09T13:38:37;39.80;;;9.30;;
68985;SDS011;56035;37.534;-122.308;2022-09-09T13:41:07;38.90;;;8.63;;
68985;SDS011;56035;37.534;-122.308;2022-09-09T13:43:42;45.03;;;9.07;;
68985;SDS011;56035;37.534;-122.308;2022-09-09T13:46:24;44.13;;;9.83;;
68985;SDS011;56035;37.534;-122.308;2022-09-09T13:49:02;40.10;;;9.73;;
68985;SDS011;56035;37.534;-122.308;2022-09-09T13:51:46;42.95;;;8.90;;
68985;SDS011;56035;37.534;-122.308;2022-09-09T13:54:16;43.70;;;9.80;;
68985;SDS011;56035;37.534;-122.308;2022-09-09T13:56:44;44.17;;;9.20;;
68985;SDS011;56035;37.534;-122.308;2022-09-09T13:59:15;43.28;;;9.15;;
68985;SDS011;56035;37.534;-122.308;2022-09-09T14:01:45;45.87;;;10.33;;
68985;SDS011;56035;37.534;-122.308;2022-09-09T14:04:11;41.15;;;8.95;;
68985;SDS011;56035;37.534;-122.308;2022-09-09T14:06:38;46.78;;;10.57;;
68985;SDS011;56035;37.534;-122.308;2022-09-09T14:09:05;40.37;;;9.37;;
68985;SDS011;56035;37.534;-122.308;2022-09-09T14:11:34;42.33;;;9.37;;
68985;SDS011;56035;37.534;-122.308;2022-09-09T14:14:00;45.08;;;9.65;;
68985;SDS011;56035;37.534;-122.308;2022-09-09T14:16:27;43.72;;;9.30;;
68985;SDS011;56035;37.534;-122.308;2022-09-09T14:18:53;40.55;;;9.20;;
68985;SDS011;56035;37.534;-122.308;2022-09-09T14:21:22;38.60;;;9.63;;
68985;SDS011;56035;37.534;-122.308;2022-09-09T14:23:48;49.33;;;10.18;;
68985;SDS011;56035;37.534;-122.308;2022-09-09T14:26:14;45.83;;;10.02;;
68985;SDS011;56035;37.534;-122.308;2022-09-09T14:28:41;39.60;;;9.55;;
68985;SDS011;56035;37.534;-122.308;2022-09-09T14:31:07;44.22;;;10.98;;
68985;SDS011;56035;37.534;-122.308;2022-09-09T14:33:35;50.20;;;9.27;;
68985;SDS011;56035;37.534;-122.308;2022-09-09T14:36:02;50.60;;;10.30;;
68985;SDS011;56035;37.534;-122.308;2022-09-09T14:38:29;48.90;;;11.07;;
68985;SDS011;56035;37.534;-122.308;2022-09-09T14:40:56;44.13;;;9.67;;
68985;SDS011;56035;37.534;-122.308;2022-09-09T14:43:23;32.90;;;8.68;;
68985;SDS011;56035;37.534;-122.308;2022-09-09T14:45:49;50.63;;;10.40;;
68985;SDS011;56035;37.534;-122.308;2022-09-09T14:48:18;41.60;;;8.90;;
68985;SDS011;56035;37.534;-122.308;2022-09-09T14:50:45;53.50;;;10.05;;
68985;SDS011;56035;37.534;-122.308;2022-09-09T14:53:11;49.65;;;11.07;;
68985;SDS011;56035;37.534;-122.308;2022-09-09T14:55:37;46.97;;;9.60;;
68985;SDS011;56035;37.534;-122.308;2022-09-09T14:58:04;45.30;;;9.35;;
68985;SDS011;56035;37.534;-122.308;2022-09-09T15:00:31;50.13;;;10.73;;
68985;SDS011;56035;37.534;-122.308;2022-09-09T15:02:57;46.47;;;10.75;;
68985;SDS011;56035;37.534;-122.308;2022-09-09T15:05:23;54.55;;;11.45;;
68985;SDS011;56035;37.534;-122.308;2022-09-09T15:07:50;50.03;;;10.77;;
68985;SDS011;56035;37.534;-122.308;2022-09-09T15:10:16;46.13;;;11.35;;
68985;SDS011;56035;37.534;-122.308;2022-09-09T15:12:45;52.03;;;12.07;;
68985;SDS011;56035;37.534;-122.308;2022-09-09T15:15:11;44.50;;;10.90;;
68985;SDS011;56035;37.534;-122.308;2022-09-09T15:17:38;57.05;;;11.57;;
68985;SDS011;56035;37.534;-122.308;2022-09-09T15:20:04;45.40;;;11.00;;
68985;SDS011;56035;37.534;-122.308;2022-09-09T15:22:33;45.37;;;10.93;;
68985;SDS011;56035;37.534;-122.308;2022-09-09T15:25:02;46.40;;;10.73;;
68985;SDS011;56035;37.534;-122.308;2022-09-09T15:27:28;47.55;;;10.43;;
68985;SDS011;56035;37.534;-122.308;2022-09-09T15:29:56;46.30;;;10.02;;
68985;SDS011;56035;37.534;-122.308;2022-09-09T15:34:49;44.22;;;10.25;;
68985;SDS011;56035;37.534;-122.308;2022-09-09T15:37:16;45.97;;;9.88;;
68985;SDS011;56035;37.534;-122.308;2022-09-09T15:39:42;43.85;;;11.68;;
68985;SDS011;56035;37.534;-122.308;2022-09-09T15:42:09;44.60;;;10.40;;
68985;SDS011;56035;37.534;-122.308;2022-09-09T15:47:08;35.13;;;9.70;;
68985;SDS011;56035;37.534;-122.308;2022-09-09T15:49:37;43.50;;;10.68;;
68985;SDS011;56035;37.534;-122.308;2022-09-09T15:52:04;36.97;;;9.80;;
68985;SDS011;56035;37.534;-122.308;2022-09-09T15:54:31;40.28;;;9.70;;
68985;SDS011;56035;37.534;-122.308;2022-09-09T15:57:00;43.42;;;10.60;;
68985;SDS011;56035;37.534;-122.308;2022-09-09T15:59:28;38.13;;;9.70;;
68985;SDS011;56035;37.534;-122.308;2022-09-09T16:01:56;40.05;;;9.38;;
68985;SDS011;56035;37.534;-122.308;2022-09-09T16:04:25;39.15;;;9.75;;
68985;SDS011;56035;37.534;-122.308;2022-09-09T16:06:53;34.15;;;9.75;;
68985;SDS011;56035;37.534;-122.308;2022-09-09T16:09:28;34.67;;;9.07;;
68985;SDS011;56035;37.534;-122.308;2022-09-09T16:11:56;36.25;;;9.93;;
68985;SDS011;56035;37.534;-122.308;2022-09-09T16:14:23;37.55;;;9.32;;
68985;SDS011;56035;37.534;-122.308;2022-09-09T16:16:50;38.05;;;9.57;;
68985;SDS011;56035;37.534;-122.308;2022-09-09T16:21:48;36.83;;;9.23;;
68985;SDS011;56035;37.534;-122.308;2022-09-09T16:24:16;37.92;;;10.02;;
68985;SDS011;56035;37.534;-122.308;2022-09-09T16:26:44;35.85;;;9.73;;
68985;SDS011;56035;37.534;-122.308;2022-09-09T16:29:13;41.70;;;10.77;;
68985;SDS011;56035;37.534;-122.308;2022-09-09T16:31:41;34.85;;;9.85;;
68985;SDS011;56035;37.534;-122.308;2022-09-09T16:34:07;41.35;;;9.98;;
68985;SDS011;56035;37.534;-122.308;2022-09-09T16:36:35;31.88;;;9.27;;
68985;SDS011;56035;37.534;-122.308;2022-09-09T16:39:08;37.75;;;9.73;;
68985;SDS011;56035;37.534;-122.308;2022-09-09T16:41:37;35.10;;;9.23;;
68985;SDS011;56035;37.534;-122.308;2022-09-09T16:44:05;30.13;;;9.43;;
68985;SDS011;56035;37.534;-122.308;2022-09-09T16:46:34;33.90;;;9.93;;
68985;SDS011;56035;37.534;-122.308;2022-09-09T16:49:02;30.77;;;9.27;;
68985;SDS011;56035;37.534;-122.308;2022-09-09T16:51:31;26.60;;;8.63;;
68985;SDS011;56035;37.534;-122.308;2022-09-09T16:54:20;33.25;;;9.30;;
68985;SDS011;56035;37.534;-122.308;2022-09-09T16:56:48;30.88;;;9.63;;
68985;SDS011;56035;37.534;-122.308;2022-09-09T16:59:15;31.75;;;9.20;;
68985;SDS011;56035;37.534;-122.308;2022-09-09T17:01:46;31.33;;;9.45;;
68985;SDS011;56035;37.534;-122.308;2022-09-09T17:04:21;36.08;;;10.35;;